NEW HOGAN LAKE (NHG)

Elevation: 554' · CALAVERAS R basin · Operator: US Army Corps of Engineers

Provisional data, subject to change.
Query executed Tuesday at 16:20:51   clock

Select a sensor type for a plot of data.
Note: Reservoir Flows are daily averages.

Earlier

Date RES ELE    STORAGE    RES CHG    TOC STO    ABV TOC    OUTFLOW    INFLOW    FNF    PPT INC    TEMP MN    TEMP MX   
 FEET   AF   AF   AF   AF   CFS   CFS   CFS   INCHES   DEG F   DEG F  
04/25/2016 661.23 138563 -53 291440 -152877 72 62 62 0.00 6 19
04/26/2016 661.20 138483 -80 294651 -156168 96 70 70 0.00 7 20
04/27/2016 661.18 138429 -54 296692 -158263 116 100 100 0.20 8 19
04/28/2016 661.15 138349 -80 298733 -160384 110 87 87 0.03 7 24
04/29/2016 661.11 138242 -107 300773 -162531 113 76 76 0.00 11 24
04/30/2016 661.03 138028 -214 302814 -164786 120 35 35 0.02 8 28
05/01/2016 660.98 137895 -133 304855 -166960 114 70 70 0.01 13 29
05/02/2016 660.94 137788 -107 306896 -169108 103 70 70 0.00 14 29
05/03/2016 660.89 137655 -133 308937 -171282 111 59 59 0.00 12 28
05/04/2016 660.82 137468 -187 310978 -173510 124 43 43 0.01 14 25
05/05/2016 660.75 137281 -187 313018 -175737 130 43 43 0.00 12 18
05/06/2016 660.71 137175 -106 315059 -177884 116 70 70 0.19 12 18
05/07/2016 660.68 137095 -80 317100 -180005 98 64 64 0.02 13 18
05/08/2016 660.62 136935 -160 317100 -180165 111 46 46 0.01 12 23
05/09/2016 660.56 136776 -159 317100 -180324 125 63 63 0.00 11 26
05/10/2016 660.49 136590 -186 317100 -180510 118 45 45 0.00 11 28
05/11/2016 660.44 136457 -133 317100 -180643 106 61 61 0.01 13 31
05/12/2016 660.36 136245 -212 317100 -180855 119 35 35 0.00 15 32
05/13/2016 660.24 135927 -318 317100 -181173 157 17 17 0.00 12 27
05/14/2016 660.09 135530 -397 317100 -181570 194 13 13 0.00 11 25
05/15/2016 659.97 135217 -- 317100 -181883 177 40 40 0.00 12 26
05/16/2016 659.87 134949 -268 317100 -182151 148 35 35 0.00 11 29
05/17/2016 659.78 134712 -237 317100 -182388 120 27 27 0.00 14 32
05/18/2016 659.69 134475 -237 317100 -182625 125 32 32 0.01 15 34
05/19/2016 659.55 134106 -369 317100 -182994 168 4 4 0.00 13 27
05/20/2016 659.38 133660 -446 317100 -183440 197 -13 -13 0.00 9 20
05/21/2016 659.28 133398 -262 317100 -183702 125 6 6 0.00 9 19
05/22/2016 659.19 133162 -236 317100 -183938 133 29 29 0.00 8 21
05/23/2016 659.07 132848 -314 317100 -184252 156 15 -- 0.00 9 24
05/24/2016 -- -- -- -- -- -- -- -- -- -- --

Later | Latest

Warning! This data is preliminary and subject to revision.

Show NHG Map | Plot NHG Data | 1 Month NHG Data | Real-Time NHG Data | NHG Info